Idre Storbo, Sweden

2:47 AM CEST on July 29, 2014 (GMT +0200)
Roros (ENRO) Elev 2054 ft | 62.58 °N, 11.34 °E | Change Station

Current weather conditions updated 27 minutes ago

Fog
Fog
46 °F
Feels Like 46 °F
N
1
Wind Variable Wind from North

Today is forecast to be nearly the same temperature as yesterday. Showers and thunderstorms late.

Today
High -- | Low -- °F
--% Chance of Precip.
Yesterday
High -- | Low -- °F
Precip. -- in
4:29 AM 10:03 PM
Waxing Crescent, 4% visible
Pressure 29.98 in
Visibility 0.6 miles
Clouds Mostly Cloudy 200 ft
Dew Point 46 °F
Humidity 100%
Rainfall 0.00 in
Snow Depth Not available.
UV 0 out of 12
Pollen Not available.
Air Quality Not available.
Flu Activity Not available.
METAR ENRO 290020Z AUTO 35001KT 0900NDV R14/1400VP2000D R32/1400VP2000D FG BKN002/// 08/08 Q1015

More Conditions Fewer Conditions

Pressure 29.98 in
Visibility 0.6 miles
Clouds Mostly Cloudy 200 ft
Dew Point 46 °F
Humidity 100%
Rainfall 0.00 in
Snow Depth Not available.
UV 0 out of 12
Pollen Not available.
Air Quality Not available.
Flu Activity Not available.
METAR ENRO 290020Z AUTO 35001KT 0900NDV R14/1400VP2000D R32/1400VP2000D FG BKN002/// 08/08 Q1015

More Conditions Fewer Conditions

10-Day Weather Forecast

Almanac

Astronomy

Jul. 29, 2014 Rise Set
Actual Time 4:29 AM CEST 10:03 PM CEST
Civil Twilight 3:15 AM CEST 11:16 PM CEST
Nautical Twilight Sun does not rise 12:44 AM CEST
Astronomical Twilight Sun does not rise Sun does not rise
Moon 7:54 AM CEST 9:54 PM CEST
Length of Visible Light 20h 01m
Length of Day
17h 33m
Tomorrow will be 5m 21s shorter.
Waxing Crescent, 4% of the Moon is Illuminated
Jul 28
Waxing Crescent
Aug 3
First Quarter
Aug 10
Full
Aug 17
Last Quarter
Aug 25
New

Yesterday's Extremes

Country Highs Country Lows

Community

WunderPhotos

Upload Photos

1,738,571 photos uploaded!

WunderBlogs® & News

Nearby

Snow Depth

Not available.

Earthquake Activity

City Distance Mag. Time & Date
No recent earthquake activity has been reported nearby.
Minimum magnitude displayed is 2.5.

Coastal Water Temperatures

Place Temperature
No Stations Reporting

Nearby Weather Stations

There are no personal weather stations in this area.